Time;durP1;ratioP1;P1;durP2;ratioP2;P2;SDS_P1;SDS_P2;PMS_P1;PMS_P2;Temp;Humidity;BMP_temperature;BMP_pressure;BME280_temperature;BME280_humidity;BME280_pressure;Samples;Min_cycle;Max_cycle;Signal;HPM_P1;HPM_P2
2024/02/15 06:42:58;;;;;;;3.72;1.50;;;;;;;;;;10593071;27;20495;-81
2024/02/15 06:47:59;;;;;;;2.28;1.25;;;;;;;;;;10594854;28;20024;-80
2024/02/15 06:53:00;;;;;;;2.60;1.13;;;;;;;;;;10597531;28;20034;-81
2024/02/15 06:58:01;;;;;;;;;;;;;;;;;;10599122;28;20039;-79
2024/02/15 07:03:02;;;;;;;2.10;1.40;;;;;;;;;;10610827;28;19999;-81
2024/02/15 07:08:05;;;;;;;2.42;1.17;;;;;;;;;;10602091;28;20103;-82
2024/02/15 07:13:06;;;;;;;4.85;1.70;;;;;;;;;;10592221;28;20016;-81
2024/02/15 07:18:07;;;;;;;2.85;1.30;;;;;;;;;;10591845;28;20022;-81
2024/02/15 07:23:08;;;;;;;2.50;1.58;;;;;;;;;;10593666;28;20032;-80
2024/02/15 07:28:09;;;;;;;3.15;1.80;;;;;;;;;;10590270;28;20069;-81
2024/02/15 07:33:11;;;;;;;3.45;1.60;;;;;;;;;;10591460;28;20189;-81
2024/02/15 07:38:12;;;;;;;6.07;2.10;;;;;;;;;;10588714;28;20023;-80
2024/02/15 07:43:13;;;;;;;7.55;2.90;;;;;;;;;;10591624;28;20079;-80
2024/02/15 07:48:14;;;;;;;6.78;2.47;;;;;;;;;;10593011;28;20457;-83
2024/02/15 07:53:15;;;;;;;;;;;;;;;;;;10570134;28;20119;-81
2024/02/15 07:58:18;;;;;;;9.32;2.88;;;;;;;;;;10569115;28;19991;-82
2024/02/15 08:03:19;;;;;;;3.10;1.58;;;;;;;;;;10568085;28;20032;-81
2024/02/15 08:08:21;;;;;;;;;;;;;;;;;;10569249;28;20016;-84
2024/02/15 08:13:28;;;;;;;2.13;1.45;;;;;;;;;;10563812;28;19904;-84
2024/02/15 08:18:29;;;;;;;3.10;1.50;;;;;;;;;;10568129;28;20028;-83
2024/02/15 08:23:30;;;;;;;3.65;1.50;;;;;;;;;;10578469;28;20082;-83
2024/02/15 08:28:31;;;;;;;5.65;1.85;;;;;;;;;;10576698;28;20035;-83
2024/02/15 08:33:32;;;;;;;4.57;1.60;;;;;;;;;;10560535;28;20115;-83
2024/02/15 08:38:34;;;;;;;4.40;1.58;;;;;;;;;;10566147;28;20044;-83
2024/02/15 08:43:35;;;;;;;4.57;1.80;;;;;;;;;;10559145;28;20022;-83
2024/02/15 08:48:36;;;;;;;3.70;2.30;;;;;;;;;;10566491;28;20046;-82
2024/02/15 08:53:37;;;;;;;4.68;2.40;;;;;;;;;;10561017;28;20024;-82
2024/02/15 08:58:40;;;;;;;5.28;2.10;;;;;;;;;;10378263;23;20482;-83
2024/02/15 09:03:41;;;;;;;4.35;2.03;;;;;;;;;;10347957;28;20078;-83
2024/02/15 09:08:42;;;;;;;4.72;2.20;;;;;;;;;;10351224;28;20044;-83
2024/02/15 09:13:43;;;;;;;3.55;1.75;;;;;;;;;;10350708;28;20033;-83
2024/02/15 09:18:45;;;;;;;3.28;1.80;;;;;;;;;;10348021;28;20072;-83
2024/02/15 09:23:48;;;;;;;4.20;1.55;;;;;;;;;;10346301;28;20029;-85
2024/02/15 09:29:15;;;;;;;3.90;1.98;;;;;;;;;;10331793;28;20038;-82
2024/02/15 09:34:16;;;;;;;5.20;1.63;;;;;;;;;;10348166;28;20062;-83
2024/02/15 09:39:20;;;;;;;4.03;1.65;;;;;;;;;;10350260;28;20474;-83
2024/02/15 09:44:27;;;;;;;4.30;1.63;;;;;;;;;;10357584;28;20474;-83
2024/02/15 09:49:29;;;;;;;3.20;1.50;;;;;;;;;;10355141;28;20018;-83
2024/02/15 09:54:57;;;;;;;5.53;2.00;;;;;;;;;;10349686;28;20029;-84
2024/02/15 10:00:16;;;;;;;3.55;1.85;;;;;;;;;;10286453;28;20074;-84
2024/02/15 10:05:27;;;;;;;4.82;2.17;;;;;;;;;;10281770;28;20091;-83
2024/02/15 10:10:28;;;;;;;;;;;;;;;;;;10299193;28;20034;-85
2024/02/15 10:15:35;;;;;;;4.50;1.92;;;;;;;;;;10286195;28;20039;-85
2024/02/15 10:20:40;;;;;;;3.75;2.00;;;;;;;;;;10286953;28;20037;-84
2024/02/15 10:26:01;;;;;;;4.28;1.73;;;;;;;;;;10295198;28;20030;-85
2024/02/15 10:31:22;;;;;;;4.72;2.20;;;;;;;;;;10296836;28;20027;-85
2024/02/15 10:36:42;;;;;;;4.97;1.80;;;;;;;;;;10214162;29;20143;-86
2024/02/15 10:41:46;;;;;;;3.22;1.75;;;;;;;;;;10214934;29;20127;-86
2024/02/15 10:46:51;;;;;;;4.90;1.80;;;;;;;;;;10310465;28;20062;-86
2024/02/15 10:51:55;;;;;;;3.10;1.80;;;;;;;;;;10337568;28;20034;-84
2024/02/15 10:56:59;;;;;;;4.82;1.88;;;;;;;;;;10347501;28;20094;-84
2024/02/15 11:02:04;;;;;;;4.38;1.88;;;;;;;;;;10339553;28;20478;-84
2024/02/15 11:07:06;;;;;;;3.80;1.60;;;;;;;;;;10338941;28;20084;-86
2024/02/15 11:12:07;;;;;;;3.20;1.70;;;;;;;;;;10336799;28;20032;-85
2024/02/15 11:17:09;;;;;;;3.00;1.58;;;;;;;;;;10335642;28;20026;-86
2024/02/15 11:22:14;;;;;;;2.85;1.27;;;;;;;;;;10339271;28;20125;-85
2024/02/15 11:27:26;;;;;;;3.55;1.50;;;;;;;;;;10342372;28;20026;-86
2024/02/15 11:32:44;;;;;;;2.92;1.60;;;;;;;;;;10346460;28;20455;-86
2024/02/15 11:37:54;;;;;;;3.97;1.52;;;;;;;;;;10346007;28;20398;-86
2024/02/15 11:42:59;;;;;;;2.33;1.58;;;;;;;;;;10350634;28;20445;-87
2024/02/15 11:48:01;;;;;;;3.55;1.50;;;;;;;;;;10347567;28;20033;-87
2024/02/15 11:53:09;;;;;;;3.28;1.60;;;;;;;;;;10369961;28;20038;-85
2024/02/15 11:58:18;;;;;;;4.82;1.70;;;;;;;;;;10388481;28;20057;-86
2024/02/15 12:19:19;;;;;;;4.28;1.50;;;;;;;;;;10347389;28;20027;-87
2024/02/15 12:24:25;;;;;;;2.45;1.45;;;;;;;;;;10345438;28;20053;-88
2024/02/15 12:29:26;;;;;;;6.75;2.03;;;;;;;;;;10347295;28;20085;-87
2024/02/15 12:34:27;;;;;;;2.83;1.45;;;;;;;;;;10342372;28;20040;-86
2024/02/15 12:39:29;;;;;;;3.70;1.65;;;;;;;;;;10341551;28;20557;-87
2024/02/15 12:44:33;;;;;;;5.07;2.10;;;;;;;;;;10344083;28;20090;-86
2024/02/15 12:49:34;;;;;;;4.05;1.80;;;;;;;;;;10346066;28;20037;-86
2024/02/15 12:54:39;;;;;;;4.90;1.75;;;;;;;;;;10342348;28;20058;-87
2024/02/15 12:59:42;;;;;;;2.42;1.30;;;;;;;;;;10342013;28;20140;-87
2024/02/15 13:04:43;;;;;;;3.40;1.45;;;;;;;;;;10342467;28;20026;-87
2024/02/15 13:09:44;;;;;;;2.33;1.17;;;;;;;;;;10341183;28;20117;-86
2024/02/15 13:14:45;;;;;;;4.78;2.53;;;;;;;;;;10341959;28;20134;-87
2024/02/15 13:19:49;;;;;;;3.47;1.60;;;;;;;;;;10342265;28;20124;-86
2024/02/15 13:24:50;;;;;;;4.22;2.20;;;;;;;;;;10350327;28;20034;-86
2024/02/15 13:29:53;;;;;;;4.30;1.70;;;;;;;;;;10340711;28;20054;-87
2024/02/15 13:34:56;;;;;;;4.80;2.30;;;;;;;;;;10340694;28;20072;-87
2024/02/15 13:39:57;;;;;;;4.68;2.20;;;;;;;;;;10340618;28;20034;-87
2024/02/15 13:44:58;;;;;;;4.68;1.80;;;;;;;;;;10340491;28;20137;-87
2024/02/15 13:49:59;;;;;;;4.50;1.65;;;;;;;;;;10378334;28;20030;-88
2024/02/15 13:55:00;;;;;;;2.95;1.70;;;;;;;;;;10376871;28;20078;-83
2024/02/15 14:00:01;;;;;;;3.67;1.20;;;;;;;;;;10374608;28;20042;-86
2024/02/15 14:05:02;;;;;;;3.05;1.35;;;;;;;;;;10374830;28;20086;-86
2024/02/15 14:10:04;;;;;;;3.88;1.73;;;;;;;;;;10350433;28;20034;-86
2024/02/15 14:15:05;;;;;;;3.05;1.50;;;;;;;;;;10340677;28;20061;-86
2024/02/15 14:20:13;;;;;;;2.83;1.67;;;;;;;;;;10339259;28;20128;-87
2024/02/15 14:25:14;;;;;;;3.67;1.63;;;;;;;;;;10339303;28;20026;-87
2024/02/15 14:35:38;;;;;;;3.28;1.40;;;;;;;;;;10349491;28;20038;-83
2024/02/15 14:40:39;;;;;;;2.92;1.55;;;;;;;;;;10346629;28;20026;-83
2024/02/15 14:45:41;;;;;;;3.28;1.42;;;;;;;;;;10340232;28;20073;-87
2024/02/15 14:50:42;;;;;;;3.75;1.33;;;;;;;;;;10339198;28;20061;-83
2024/02/15 14:55:46;;;;;;;3.85;1.73;;;;;;;;;;10343614;28;20109;-83
2024/02/15 15:00:47;;;;;;;4.38;1.50;;;;;;;;;;10348563;28;20037;-82
2024/02/15 15:16:27;;;;;;;2.65;1.33;;;;;;;;;;10361506;28;20110;-83
2024/02/15 15:21:28;;;;;;;3.30;1.40;;;;;;;;;;10360624;28;20486;-83
2024/02/15 15:26:31;;;;;;;4.40;1.50;;;;;;;;;;10360991;28;20043;-84
2024/02/15 15:31:33;;;;;;;2.47;1.10;;;;;;;;;;10353653;28;20054;-82
2024/02/15 15:36:34;;;;;;;4.45;1.30;;;;;;;;;;10347477;28;20030;-83
2024/02/15 15:41:37;;;;;;;4.50;1.40;;;;;;;;;;10351594;28;20102;-82
2024/02/15 15:46:39;;;;;;;3.42;1.20;;;;;;;;;;10353094;28;20101;-82
2024/02/15 15:51:43;;;;;;;3.38;1.13;;;;;;;;;;10349986;28;20487;-84
2024/02/15 15:56:44;;;;;;;3.72;1.55;;;;;;;;;;10345135;28;20034;-82
2024/02/15 16:01:49;;;;;;;3.00;1.25;;;;;;;;;;10346371;28;20125;-84
2024/02/15 16:06:50;;;;;;;3.65;1.67;;;;;;;;;;10347244;28;20106;-85
2024/02/15 16:11:53;;;;;;;4.97;2.30;;;;;;;;;;10334150;28;20026;-84
2024/02/15 16:16:57;;;;;;;2.67;1.75;;;;;;;;;;10352605;28;20121;-86
2024/02/15 16:21:58;;;;;;;4.53;1.90;;;;;;;;;;10352273;28;20054;-85
2024/02/15 16:27:08;;;;;;;3.72;2.00;;;;;;;;;;10352890;28;20022;-86
2024/02/15 16:38:17;;;;;;;3.38;1.73;;;;;;;;;;10343432;28;20030;-87
2024/02/15 16:49:37;;;;;;;4.20;1.83;;;;;;;;;;10345122;28;20471;-87
2024/02/15 16:55:19;;;;;;;3.35;1.80;;;;;;;;;;10344473;28;20394;-90
2024/02/15 17:00:59;;;;;;;4.88;2.00;;;;;;;;;;10352941;28;20450;-88
2024/02/15 17:12:06;;;;;;;2.70;1.63;;;;;;;;;;10342564;28;20478;-83
2024/02/15 17:17:15;;;;;;;4.15;1.98;;;;;;;;;;10319678;28;20034;-87
2024/02/15 17:22:16;;;;;;;4.70;1.80;;;;;;;;;;10343353;28;20033;-82
2024/02/15 17:27:38;;;;;;;2.88;1.70;;;;;;;;;;10322646;28;20034;-83
2024/02/15 17:38:19;;;;;;;4.68;2.33;;;;;;;;;;10345441;28;20022;-84
2024/02/15 17:43:35;;;;;;;5.07;2.38;;;;;;;;;;10348401;28;20042;-84
2024/02/15 17:48:57;;;;;;;2.60;1.50;;;;;;;;;;10348508;28;20018;-84
2024/02/15 17:59:56;;;;;;;6.32;3.20;;;;;;;;;;10347221;28;20088;-84
2024/02/15 18:04:57;;;;;;;4.88;2.00;;;;;;;;;;10346952;28;20066;-85
2024/02/15 18:10:02;;;;;;;3.88;2.20;;;;;;;;;;10345500;28;20538;-84
2024/02/15 18:15:03;;;;;;;4.75;2.05;;;;;;;;;;10344295;28;20090;-85
2024/02/15 18:20:05;;;;;;;3.40;1.40;;;;;;;;;;10343657;28;20037;-84
2024/02/15 18:25:08;;;;;;;3.50;1.48;;;;;;;;;;10345468;28;20038;-84
2024/02/15 18:30:10;;;;;;;2.72;1.50;;;;;;;;;;10348346;28;20033;-85
2024/02/15 18:35:11;;;;;;;5.00;2.42;;;;;;;;;;10345560;28;20121;-84
2024/02/15 18:40:14;;;;;;;4.82;2.55;;;;;;;;;;10341908;28;20032;-84
2024/02/15 18:45:17;;;;;;;6.40;3.40;;;;;;;;;;10345418;28;20356;-84
2024/02/15 18:50:19;;;;;;;5.05;2.80;;;;;;;;;;10340557;28;20034;-84
2024/02/15 18:55:20;;;;;;;3.20;2.00;;;;;;;;;;10341212;28;20026;-85
2024/02/15 19:00:23;;;;;;;4.72;2.40;;;;;;;;;;10344318;28;20037;-84
2024/02/15 19:05:24;;;;;;;8.13;4.93;;;;;;;;;;10341750;28;20042;-84
2024/02/15 19:10:26;;;;;;;5.80;2.97;;;;;;;;;;10339498;28;20034;-84
2024/02/15 19:15:27;;;;;;;4.22;2.30;;;;;;;;;;10342685;28;20545;-84
2024/02/15 19:20:29;;;;;;;5.10;2.10;;;;;;;;;;10340485;28;20097;-84
2024/02/15 19:25:30;;;;;;;4.40;2.40;;;;;;;;;;10344777;28;20046;-84
2024/02/15 19:30:31;;;;;;;3.75;1.90;;;;;;;;;;10344525;28;20458;-85
2024/02/15 19:35:32;;;;;;;5.88;2.47;;;;;;;;;;10342152;28;20073;-85
2024/02/15 19:40:35;;;;;;;3.53;2.03;;;;;;;;;;10341284;28;20031;-85
2024/02/15 19:45:41;;;;;;;6.43;2.50;;;;;;;;;;10342078;28;20113;-84
2024/02/15 19:50:44;;;;;;;3.75;1.90;;;;;;;;;;10347777;28;20026;-84
2024/02/15 19:55:45;;;;;;;4.50;2.58;;;;;;;;;;10352820;28;20026;-85
2024/02/15 20:00:49;;;;;;;6.00;2.72;;;;;;;;;;10352278;28;20066;-84
2024/02/15 20:05:50;;;;;;;4.32;2.25;;;;;;;;;;10349291;28;20041;-85
